Time;durP1;ratioP1;P1;durP2;ratioP2;P2;SDS_P1;SDS_P2;PMS_P1;PMS_P2;Temp;Humidity;BMP_temperature;BMP_pressure;BME280_temperature;BME280_humidity;BME280_pressure;Samples;Min_cycle;Max_cycle;Signal;HPM_P1;HPM_P2
2022/07/27 00:01:04;;;;;;;6.88;2.40;;;13.80;99.90;;;;;;5027148;28;20119;-90
2022/07/27 00:03:29;;;;;;;6.30;2.22;;;13.80;99.90;;;;;;5014869;28;20142;-91
2022/07/27 00:05:55;;;;;;;6.57;2.25;;;13.80;99.90;;;;;;5013797;28;20068;-92
2022/07/27 00:08:22;;;;;;;6.20;2.63;;;13.80;99.90;;;;;;5030564;28;20037;-91
2022/07/27 00:10:49;;;;;;;6.05;2.40;;;13.80;99.90;;;;;;5029771;28;20052;-91
2022/07/27 00:13:15;;;;;;;7.43;2.33;;;13.80;99.90;;;;;;5047566;28;20459;-92
2022/07/27 00:15:41;;;;;;;6.30;2.20;;;13.80;99.90;;;;;;5031947;28;20156;-92
2022/07/27 00:18:07;;;;;;;8.23;2.55;;;13.80;99.90;;;;;;5030171;28;20402;-91
2022/07/27 00:20:33;;;;;;;6.22;2.20;;;13.80;99.90;;;;;;5047219;28;20053;-91
2022/07/27 00:22:59;;;;;;;8.48;2.65;;;13.70;99.90;;;;;;4990201;28;20499;-91
2022/07/27 00:25:28;;;;;;;6.50;2.42;;;13.80;99.90;;;;;;5009962;28;20034;-91
2022/07/27 00:27:55;;;;;;;5.60;2.15;;;13.70;99.90;;;;;;5031141;28;20041;-91
2022/07/27 00:30:21;;;;;;;8.90;2.22;;;13.70;99.90;;;;;;5040550;28;20045;-90
2022/07/27 00:32:47;;;;;;;6.72;2.10;;;13.80;99.90;;;;;;4995147;28;20045;-91
2022/07/27 00:35:13;;;;;;;7.43;2.40;;;13.80;99.90;;;;;;5047511;28;20041;-88
2022/07/27 00:37:39;;;;;;;8.13;2.40;;;13.80;99.90;;;;;;5030690;28;20104;-88
2022/07/27 00:40:05;;;;;;;7.97;2.47;;;13.80;99.90;;;;;;5029012;28;20595;-90
2022/07/27 00:42:31;;;;;;;6.63;2.25;;;13.80;99.90;;;;;;5042581;28;20033;-91
2022/07/27 00:44:57;;;;;;;6.10;2.25;;;13.80;99.90;;;;;;5010580;28;20181;-91
2022/07/27 00:47:23;;;;;;;6.55;2.30;;;13.80;99.90;;;;;;5017057;28;20057;-90
2022/07/27 00:49:49;;;;;;;8.40;2.65;;;13.90;99.90;;;;;;5002473;28;20044;-90
2022/07/27 00:52:16;;;;;;;7.45;2.38;;;13.80;99.90;;;;;;5023639;28;20409;-90
2022/07/27 00:54:42;;;;;;;7.38;2.35;;;13.80;99.90;;;;;;5023331;28;20051;-90
2022/07/27 00:57:12;;;;;;;6.55;2.53;;;13.70;99.90;;;;;;5036468;28;20058;-91
2022/07/27 00:59:38;;;;;;;8.63;2.60;;;13.70;99.90;;;;;;5016784;28;20400;-90
2022/07/27 01:02:06;;;;;;;6.50;2.42;;;13.70;99.90;;;;;;5004557;28;20128;-90
2022/07/27 01:04:32;;;;;;;8.30;2.83;;;13.70;99.90;;;;;;4994382;28;20041;-91
2022/07/27 01:06:58;;;;;;;6.85;2.78;;;13.60;99.90;;;;;;5039445;28;20091;-92
2022/07/27 01:12:12;;;;;;;6.68;2.83;;;13.60;99.90;;;;;;5009383;28;20053;-91
2022/07/27 01:14:38;;;;;;;7.38;2.88;;;13.60;99.90;;;;;;5044097;28;20049;-91
2022/07/27 01:17:04;;;;;;;7.15;2.88;;;13.60;99.90;;;;;;5010559;28;20044;-91
2022/07/27 01:19:30;;;;;;;5.72;2.53;;;13.60;99.90;;;;;;5039435;28;20041;-90
2022/07/27 01:21:55;;;;;;;6.43;2.55;;;13.60;99.90;;;;;;5026279;28;20087;-91
2022/07/27 01:24:21;;;;;;;7.53;2.60;;;13.60;99.90;;;;;;5028715;28;20064;-91
2022/07/27 01:26:47;;;;;;;6.70;2.70;;;13.60;99.90;;;;;;5045915;28;20049;-90
2022/07/27 01:29:12;;;;;;;7.32;2.38;;;13.60;99.90;;;;;;5027021;28;20068;-90
2022/07/27 01:31:38;;;;;;;8.30;2.50;;;13.60;99.90;;;;;;5027460;28;20132;-91
2022/07/27 01:34:04;;;;;;;6.35;2.65;;;13.70;99.90;;;;;;5045569;28;20379;-90
2022/07/27 01:36:30;;;;;;;8.23;2.85;;;13.60;99.90;;;;;;5047241;28;20540;-90
2022/07/27 01:38:56;;;;;;;6.97;2.58;;;13.60;99.90;;;;;;5010985;28;20075;-90
2022/07/27 01:41:21;;;;;;;6.32;2.70;;;13.60;99.90;;;;;;5022750;28;20110;-91
2022/07/27 01:43:48;;;;;;;7.18;2.80;;;13.60;99.90;;;;;;5047750;28;20041;-91
2022/07/27 01:46:13;;;;;;;7.47;2.85;;;13.60;99.90;;;;;;5005314;28;20050;-91
2022/07/27 01:48:39;;;;;;;8.98;3.40;;;13.60;99.90;;;;;;5024554;28;20417;-91
2022/07/27 01:51:05;;;;;;;7.10;2.65;;;13.60;99.90;;;;;;5046506;28;20048;-91
2022/07/27 01:53:30;;;;;;;5.68;2.53;;;13.60;99.90;;;;;;5010136;28;20049;-91
2022/07/27 01:55:56;;;;;;;7.03;3.25;;;13.50;99.90;;;;;;5027561;28;20112;-90
2022/07/27 01:58:22;;;;;;;8.45;3.10;;;13.50;99.90;;;;;;5026185;28;20506;-90
2022/07/27 02:00:48;;;;;;;7.63;2.83;;;13.50;99.90;;;;;;5010181;28;20037;-92
2022/07/27 02:03:14;;;;;;;6.88;2.75;;;13.50;99.90;;;;;;5031315;28;20148;-90
2022/07/27 02:05:40;;;;;;;9.20;3.20;;;13.40;99.90;;;;;;5028899;28;20080;-91
2022/07/27 02:08:07;;;;;;;8.60;2.90;;;13.40;99.90;;;;;;5044517;28;20045;-90
2022/07/27 02:10:33;;;;;;;8.88;3.70;;;13.30;99.90;;;;;;5027818;28;20045;-90
2022/07/27 02:12:59;;;;;;;7.10;2.85;;;13.30;99.90;;;;;;5044995;28;20041;-91
2022/07/27 02:15:27;;;;;;;6.53;3.00;;;13.30;99.90;;;;;;5027694;28;20037;-91
2022/07/27 02:17:54;;;;;;;6.95;3.10;;;13.20;99.90;;;;;;5026888;28;20417;-91
2022/07/27 02:20:21;;;;;;;6.10;3.00;;;13.20;99.90;;;;;;5045541;28;20057;-91
2022/07/27 02:22:47;;;;;;;7.43;3.03;;;13.10;99.90;;;;;;5010645;28;20049;-91
2022/07/27 02:25:15;;;;;;;7.43;3.20;;;13.10;99.90;;;;;;5023562;28;20559;-92
2022/07/27 02:27:42;;;;;;;7.30;3.13;;;13.10;99.90;;;;;;5026066;28;20048;-91
2022/07/27 02:30:09;;;;;;;8.90;3.28;;;13.00;99.90;;;;;;5046732;28;20091;-91
2022/07/27 02:32:35;;;;;;;8.20;3.33;;;13.00;99.90;;;;;;5023808;28;20045;-90
2022/07/27 02:35:00;;;;;;;8.05;3.47;;;13.00;99.90;;;;;;5026714;28;20071;-88
2022/07/27 02:37:26;;;;;;;8.35;3.13;;;13.00;99.90;;;;;;5027448;28;20049;-88
2022/07/27 02:39:52;;;;;;;7.28;3.20;;;12.90;99.90;;;;;;5045750;28;20033;-90
2022/07/27 02:42:18;;;;;;;7.50;3.40;;;12.90;99.90;;;;;;5010928;28;20432;-89
2022/07/27 02:44:44;;;;;;;7.47;3.30;;;12.90;99.90;;;;;;5025904;28;20045;-89
2022/07/27 02:47:10;;;;;;;8.63;3.70;;;12.80;99.90;;;;;;5007749;28;20469;-89
2022/07/27 02:49:36;;;;;;;7.95;3.53;;;12.80;99.90;;;;;;5028793;28;20043;-90
2022/07/27 02:52:02;;;;;;;7.40;3.50;;;12.70;99.90;;;;;;5026980;28;21231;-90
2022/07/27 02:54:31;;;;;;;7.97;3.35;;;12.70;99.90;;;;;;5027414;28;20423;-90
2022/07/27 02:56:57;;;;;;;7.80;3.55;;;12.70;99.90;;;;;;5025992;28;20037;-89
2022/07/27 02:59:23;;;;;;;6.47;3.00;;;12.70;99.90;;;;;;5011943;28;20045;-89
2022/07/27 03:01:49;;;;;;;8.90;3.75;;;12.70;99.90;;;;;;5022270;28;20530;-89
2022/07/27 03:04:16;;;;;;;8.40;3.50;;;12.70;99.90;;;;;;5046285;28;20557;-90
2022/07/27 03:06:43;;;;;;;6.82;3.15;;;12.60;99.90;;;;;;5027632;28;20080;-88
2022/07/27 03:09:09;;;;;;;7.03;3.03;;;12.60;99.90;;;;;;5027208;28;20045;-88
2022/07/27 03:11:35;;;;;;;6.75;3.60;;;12.60;99.90;;;;;;5045741;28;20405;-88
2022/07/27 03:14:01;;;;;;;7.50;3.30;;;12.60;99.90;;;;;;5025463;28;20045;-88
2022/07/27 03:16:26;;;;;;;6.55;3.00;;;12.60;99.90;;;;;;5010407;28;20584;-88
2022/07/27 03:18:52;;;;;;;6.53;3.15;;;12.50;99.90;;;;;;5025923;28;20409;-88
2022/07/27 03:21:18;;;;;;;7.90;3.30;;;12.50;99.90;;;;;;5009730;28;20524;-88
2022/07/27 03:23:43;;;;;;;7.82;3.13;;;12.50;99.90;;;;;;5007202;28;21063;-88
2022/07/27 03:26:09;;;;;;;6.85;3.53;;;12.50;99.90;;;;;;5006825;28;20905;-88
2022/07/27 03:28:35;;;;;;;9.25;4.47;;;12.40;99.90;;;;;;4989616;28;20041;-87
2022/07/27 03:31:00;;;;;;;7.57;3.63;;;12.40;99.90;;;;;;5007574;28;20498;-88
2022/07/27 03:33:26;;;;;;;7.35;3.33;;;12.40;99.90;;;;;;5028033;28;20076;-89
2022/07/27 03:35:51;;;;;;;9.15;3.80;;;12.40;99.90;;;;;;5010716;28;20445;-89
2022/07/27 03:38:17;;;;;;;7.72;3.65;;;12.30;99.90;;;;;;5009666;28;20249;-89
2022/07/27 03:40:46;;;;;;;6.40;3.08;;;12.30;99.90;;;;;;5009315;28;20046;-89
2022/07/27 03:43:11;;;;;;;8.88;3.83;;;12.30;99.90;;;;;;5010199;28;20041;-88
2022/07/27 03:45:37;;;;;;;9.30;3.30;;;12.30;99.90;;;;;;5011054;28;20055;-88
2022/07/27 03:48:02;;;;;;;8.52;3.80;;;12.30;99.90;;;;;;5010003;28;20049;-88
2022/07/27 03:50:28;;;;;;;7.95;4.00;;;12.30;99.90;;;;;;5028711;28;20406;-89
2022/07/27 03:52:55;;;;;;;6.05;3.33;;;12.30;99.90;;;;;;4992458;28;20048;-89
2022/07/27 03:55:21;;;;;;;8.60;3.80;;;12.30;99.90;;;;;;5023895;28;20319;-88
2022/07/27 03:57:47;;;;;;;7.03;3.63;;;12.20;99.90;;;;;;5010984;28;20071;-88
2022/07/27 04:00:13;;;;;;;6.80;3.10;;;12.30;99.90;;;;;;5009935;28;20073;-87
2022/07/27 04:02:42;;;;;;;7.55;3.55;;;12.30;99.90;;;;;;5010857;28;20041;-88
2022/07/27 04:05:08;;;;;;;8.82;3.55;;;12.30;99.90;;;;;;4993446;28;20390;-87
2022/07/27 04:07:34;;;;;;;8.48;3.70;;;12.30;99.90;;;;;;5009541;28;20068;-87
2022/07/27 04:10:00;;;;;;;8.57;3.78;;;12.30;99.90;;;;;;5008730;28;20034;-89
2022/07/27 04:12:26;;;;;;;8.07;3.70;;;12.40;99.90;;;;;;5009318;28;20045;-88
2022/07/27 04:14:51;;;;;;;9.00;4.22;;;12.30;99.90;;;;;;5009027;28;20432;-88
2022/07/27 04:17:17;;;;;;;9.00;4.40;;;12.40;99.90;;;;;;5006226;28;20049;-89
2022/07/27 04:19:42;;;;;;;8.27;4.03;;;12.30;99.90;;;;;;4990012;28;20053;-88
2022/07/27 04:22:08;;;;;;;6.63;3.83;;;12.30;99.90;;;;;;5027312;28;20124;-89
2022/07/27 04:24:33;;;;;;;9.77;3.97;;;12.40;99.90;;;;;;5011770;28;20041;-89
2022/07/27 04:26:59;;;;;;;7.95;3.85;;;12.30;99.90;;;;;;5045825;28;20088;-88
2022/07/27 04:29:25;;;;;;;7.95;3.92;;;12.40;99.90;;;;;;5045880;28;20049;-88
2022/07/27 04:31:50;;;;;;;8.93;3.78;;;12.40;99.90;;;;;;5043108;28;20171;-87
2022/07/27 04:34:16;;;;;;;8.35;4.15;;;12.40;99.90;;;;;;5022863;28;20080;-88
2022/07/27 04:36:41;;;;;;;8.43;3.72;;;12.40;99.90;;;;;;5014628;28;20048;-87
2022/07/27 04:39:07;;;;;;;8.30;3.75;;;12.50;99.90;;;;;;5012537;28;20048;-87
2022/07/27 04:41:33;;;;;;;7.80;3.67;;;12.50;99.90;;;;;;5029407;28;20403;-88
2022/07/27 04:43:58;;;;;;;8.90;3.80;;;12.60;99.90;;;;;;5037818;28;20405;-88
2022/07/27 04:46:24;;;;;;;8.32;3.83;;;12.60;99.90;;;;;;5027442;28;20447;-88
2022/07/27 04:48:50;;;;;;;9.18;3.47;;;12.70;99.90;;;;;;5018301;28;20292;-89
2022/07/27 04:51:16;;;;;;;7.80;3.75;;;12.70;99.90;;;;;;5023925;28;20036;-88
2022/07/27 04:53:42;;;;;;;9.77;3.80;;;12.70;99.90;;;;;;5029598;28;20111;-88
2022/07/27 04:56:08;;;;;;;8.57;3.67;;;12.80;99.90;;;;;;5047455;28;20049;-88
2022/07/27 04:58:35;;;;;;;8.68;3.40;;;12.90;99.90;;;;;;5026198;28;20037;-87
2022/07/27 05:01:01;;;;;;;8.23;3.70;;;12.90;99.90;;;;;;5024834;28;20370;-88
2022/07/27 05:03:26;;;;;;;7.10;3.65;;;13.00;99.90;;;;;;5027358;28;20056;-89
2022/07/27 05:05:52;;;;;;;6.85;3.63;;;13.00;99.90;;;;;;5023605;28;20055;-88
2022/07/27 05:08:18;;;;;;;7.30;3.42;;;13.10;99.90;;;;;;5029358;28;20406;-88
2022/07/27 05:10:44;;;;;;;9.35;3.70;;;13.10;99.90;;;;;;5025057;28;20381;-88
2022/07/27 05:13:10;;;;;;;7.60;3.38;;;13.10;99.90;;;;;;5029178;28;20049;-91
2022/07/27 05:15:55;;;;;;;9.13;3.55;;;13.20;99.90;;;;;;5032230;28;20048;-93
2022/07/27 05:18:21;;;;;;;8.00;3.50;;;13.20;99.90;;;;;;5021538;28;20063;-95
2022/07/27 05:20:47;;;;;;;12.43;4.10;;;13.20;99.90;;;;;;5034170;28;20056;-95
2022/07/27 05:23:13;;;;;;;7.95;3.97;;;13.20;99.90;;;;;;5044942;28;20059;-95
2022/07/27 05:25:38;;;;;;;9.02;3.92;;;13.10;99.90;;;;;;5021406;28;20094;-93
2022/07/27 05:28:04;;;;;;;8.10;3.40;;;13.30;99.90;;;;;;5024662;28;20646;-93
2022/07/27 05:30:30;;;;;;;8.27;3.35;;;13.40;99.90;;;;;;5038568;28;20060;-94
2022/07/27 05:32:55;;;;;;;8.80;3.40;;;13.40;99.90;;;;;;5057529;28;20072;-94
2022/07/27 05:35:21;;;;;;;6.90;3.28;;;13.50;99.90;;;;;;5026903;28;20052;-94
2022/07/27 05:37:47;;;;;;;7.18;3.33;;;13.50;99.90;;;;;;5036614;28;20045;-92
2022/07/27 05:40:12;;;;;;;8.73;3.33;;;13.50;99.90;;;;;;5017214;28;20037;-95
2022/07/27 05:42:41;;;;;;;10.35;3.20;;;13.50;99.90;;;;;;5023969;28;20049;-93
2022/07/27 05:45:07;;;;;;;7.85;2.90;;;13.60;99.90;;;;;;5023550;28;20168;-94
2022/07/27 05:47:32;;;;;;;7.72;3.00;;;13.70;99.90;;;;;;5039550;28;20136;-95
2022/07/27 05:49:58;;;;;;;8.68;3.25;;;13.70;99.90;;;;;;5021814;28;20065;-93
2022/07/27 05:52:24;;;;;;;8.02;2.80;;;13.80;99.90;;;;;;5041224;28;20266;-96
2022/07/27 05:54:49;;;;;;;9.63;3.08;;;13.80;99.90;;;;;;5039234;28;20393;-95
2022/07/27 05:57:15;;;;;;;8.60;2.90;;;13.90;99.90;;;;;;5057361;28;20068;-95
2022/07/27 05:59:41;;;;;;;7.80;2.80;;;14.00;99.90;;;;;;5035629;28;20041;-94
2022/07/27 06:02:07;;;;;;;9.25;2.97;;;14.00;99.90;;;;;;5015500;28;20055;-96
2022/07/27 06:04:33;;;;;;;6.47;2.63;;;14.00;99.90;;;;;;5024248;28;20080;-93
2022/07/27 06:09:44;;;;;;;8.48;2.80;;;14.20;99.90;;;;;;5033315;28;20538;-94
2022/07/27 06:12:09;;;;;;;8.32;2.63;;;14.20;99.90;;;;;;5039315;28;20036;-96
2022/07/27 06:14:35;;;;;;;9.10;3.00;;;14.30;99.90;;;;;;5053561;28;20041;-95
2022/07/27 06:17:00;;;;;;;8.45;2.90;;;14.30;99.90;;;;;;5027093;28;20056;-95
2022/07/27 06:19:26;;;;;;;9.85;2.97;;;14.40;99.90;;;;;;5040249;28;20037;-94
2022/07/27 06:21:52;;;;;;;8.27;2.60;;;14.40;99.90;;;;;;5019031;28;20075;-95
2022/07/27 06:26:50;;;;;;;9.10;2.67;;;14.50;99.90;;;;;;5053249;28;20073;-94
2022/07/27 06:29:16;;;;;;;9.43;2.80;;;14.40;99.90;;;;;;5049452;28;20048;-96
2022/07/27 06:31:41;;;;;;;7.57;2.70;;;14.60;99.90;;;;;;5018593;28;20096;-93
2022/07/27 06:34:07;;;;;;;7.32;2.72;;;14.60;99.90;;;;;;5011817;28;20091;-93
2022/07/27 06:36:33;;;;;;;9.13;2.53;;;14.70;99.90;;;;;;4999344;28;20050;-93
2022/07/27 06:38:58;;;;;;;8.23;2.78;;;14.70;99.90;;;;;;5048563;28;20021;-94
2022/07/27 06:41:24;;;;;;;7.63;2.58;;;14.80;99.90;;;;;;5013153;28;20128;-87
2022/07/27 06:43:50;;;;;;;9.43;2.70;;;14.80;99.90;;;;;;4987087;28;20417;-88
2022/07/27 06:46:15;;;;;;;8.50;3.20;;;14.90;99.90;;;;;;4992034;28;20401;-89
2022/07/27 06:48:41;;;;;;;8.05;2.85;;;14.90;99.90;;;;;;4999652;28;20130;-88
2022/07/27 06:51:07;;;;;;;10.93;2.88;;;15.00;99.90;;;;;;4980022;28;20045;-88
2022/07/27 06:53:33;;;;;;;7.82;2.70;;;15.00;99.90;;;;;;4998440;28;20038;-89
2022/07/27 06:56:02;;;;;;;7.25;2.40;;;15.10;99.90;;;;;;5006233;28;20124;-89
2022/07/27 06:58:32;;;;;;;7.45;2.72;;;15.20;99.90;;;;;;4991851;28;20045;-94
2022/07/27 07:01:00;;;;;;;8.98;2.63;;;15.20;99.90;;;;;;5016232;28;20065;-95
2022/07/27 07:03:27;;;;;;;9.88;2.85;;;15.30;99.90;;;;;;5031566;28;20053;-94
2022/07/27 07:05:53;;;;;;;8.70;2.53;;;15.40;99.90;;;;;;5018535;28;20124;-91
2022/07/27 07:08:21;;;;;;;8.20;2.60;;;15.40;99.90;;;;;;5036419;28;20120;-90
2022/07/27 07:10:47;;;;;;;8.18;2.13;;;15.40;99.90;;;;;;5011572;28;20471;-91
2022/07/27 07:13:13;;;;;;;6.90;2.10;;;15.40;99.90;;;;;;5018217;28;20552;-91
2022/07/27 07:15:40;;;;;;;7.10;2.10;;;15.60;99.90;;;;;;5019959;28;20045;-92
2022/07/27 07:18:07;;;;;;;6.40;2.72;;;15.60;99.90;;;;;;4988587;28;20102;-94
2022/07/27 07:20:34;;;;;;;7.25;2.30;;;15.70;99.90;;;;;;5041000;28;20033;-90
2022/07/27 07:23:00;;;;;;;6.10;2.15;;;15.90;99.90;;;;;;5026294;28;20121;-94
2022/07/27 07:25:26;;;;;;;7.57;2.08;;;15.80;99.90;;;;;;4998234;28;20061;-93
2022/07/27 07:27:54;;;;;;;6.82;1.95;;;15.90;99.90;;;;;;4997897;28;20053;-92
2022/07/27 07:30:20;;;;;;;6.82;1.60;;;16.00;99.90;;;;;;5015450;28;20053;-93
2022/07/27 07:32:46;;;;;;;7.65;1.70;;;16.10;99.90;;;;;;5030166;28;20065;-94
2022/07/27 07:35:12;;;;;;;5.55;1.83;;;16.20;99.90;;;;;;5010171;28;20041;-94
2022/07/27 07:37:38;;;;;;;4.35;1.58;;;16.30;99.90;;;;;;4992269;28;21456;-92
2022/07/27 07:40:05;;;;;;;4.10;1.63;;;16.40;99.90;;;;;;4999042;28;20132;-93
2022/07/27 07:42:31;;;;;;;7.35;1.92;;;16.50;99.90;;;;;;5018739;28;20049;-95
2022/07/27 07:44:57;;;;;;;5.88;1.73;;;16.60;99.90;;;;;;5010457;28;20048;-92
2022/07/27 07:47:26;;;;;;;5.35;1.33;;;16.70;99.90;;;;;;5006013;28;20383;-91
2022/07/27 07:49:52;;;;;;;7.35;1.55;;;16.70;99.90;;;;;;4990650;28;20044;-94
2022/07/27 07:52:17;;;;;;;6.60;1.80;;;16.80;99.90;;;;;;5026077;28;20045;-93
2022/07/27 07:54:43;;;;;;;8.07;1.70;;;16.90;99.90;;;;;;4989350;28;20050;-92
2022/07/27 07:57:09;;;;;;;6.00;1.70;;;16.90;99.90;;;;;;5001379;28;20436;-91
2022/07/27 07:59:34;;;;;;;6.28;1.35;;;16.80;99.90;;;;;;5012228;28;20087;-92
2022/07/27 08:02:02;;;;;;;6.50;1.45;;;16.90;99.90;;;;;;4992496;28;20037;-92
2022/07/27 08:04:27;;;;;;;6.63;1.90;;;16.90;99.90;;;;;;5025583;28;20052;-91
2022/07/27 08:06:53;;;;;;;6.95;1.52;;;17.00;99.90;;;;;;4987021;28;20041;-92
2022/07/27 08:09:20;;;;;;;5.75;1.60;;;17.00;99.90;;;;;;4989419;28;20440;-90
2022/07/27 08:11:46;;;;;;;7.85;1.75;;;17.00;99.90;;;;;;5007829;28;20044;-92
2022/07/27 08:14:12;;;;;;;7.80;1.50;;;16.90;99.90;;;;;;4993318;28;20542;-89
2022/07/27 08:16:37;;;;;;;8.90;1.92;;;16.90;99.90;;;;;;4990422;28;20053;-91
2022/07/27 08:19:03;;;;;;;7.88;1.77;;;16.80;99.90;;;;;;4997643;28;20057;-89
2022/07/27 08:21:29;;;;;;;6.28;1.50;;;16.90;99.90;;;;;;5008555;28;20041;-90
2022/07/27 08:23:54;;;;;;;6.85;1.80;;;16.90;99.90;;;;;;4992708;28;20037;-91
2022/07/27 08:26:20;;;;;;;6.72;1.48;;;17.00;99.90;;;;;;5023411;28;20057;-91
2022/07/27 08:28:46;;;;;;;8.23;1.92;;;17.00;99.90;;;;;;4980250;28;20093;-90
2022/07/27 08:31:12;;;;;;;4.20;1.50;;;17.10;99.90;;;;;;4996700;28;20107;-90
2022/07/27 08:33:37;;;;;;;7.22;1.58;;;17.20;99.90;;;;;;5016150;28;20049;-91
2022/07/27 08:36:03;;;;;;;6.45;1.65;;;17.30;99.90;;;;;;5016675;28;20568;-89
2022/07/27 08:38:29;;;;;;;7.65;1.73;;;17.50;99.90;;;;;;5011292;28;20051;-90
2022/07/27 08:40:57;;;;;;;4.97;1.35;;;17.60;99.90;;;;;;5026384;28;20085;-91
2022/07/27 08:43:24;;;;;;;6.65;1.40;;;17.70;99.90;;;;;;4984204;28;20100;-89
2022/07/27 08:45:58;;;;;;;7.70;1.42;;;17.70;99.90;;;;;;5021300;28;20046;-89
2022/07/27 08:48:25;;;;;;;6.20;1.33;;;17.80;99.90;;;;;;5011878;28;20058;-88
2022/07/27 08:50:52;;;;;;;7.55;1.55;;;17.80;99.90;;;;;;5016097;28;20046;-90
2022/07/27 08:53:18;;;;;;;5.95;1.60;;;17.80;99.90;;;;;;4989388;28;20073;-90
2022/07/27 08:55:46;;;;;;;6.63;1.77;;;17.80;99.90;;;;;;5015912;28;20093;-90
2022/07/27 08:58:13;;;;;;;7.13;1.80;;;17.90;99.90;;;;;;5004719;28;20037;-92
2022/07/27 09:00:41;;;;;;;5.57;1.80;;;18.10;99.90;;;;;;5021060;28;20049;-90
2022/07/27 09:03:10;;;;;;;11.25;2.13;;;18.40;99.90;;;;;;4990861;28;20045;-92
2022/07/27 09:05:42;;;;;;;8.68;1.70;;;18.60;99.90;;;;;;5014877;28;20072;-91
2022/07/27 09:08:10;;;;;;;4.72;1.30;;;18.50;99.90;;;;;;4983594;28;20045;-90
2022/07/27 09:10:38;;;;;;;9.35;1.70;;;18.50;99.90;;;;;;4992626;28;20390;-88
2022/07/27 09:13:28;;;;;;;5.93;1.50;;;18.30;99.90;;;;;;4996278;28;20600;-89
2022/07/27 09:16:09;;;;;;;8.05;1.85;;;18.10;99.90;;;;;;4989202;28;20475;-90
2022/07/27 09:18:36;;;;;;;8.00;1.60;;;17.70;99.90;;;;;;4994761;28;20046;-89
2022/07/27 09:21:15;;;;;;;6.90;1.80;;;17.40;99.90;;;;;;4987264;28;20871;-89
2022/07/27 09:23:51;;;;;;;5.38;1.60;;;17.30;99.90;;;;;;5002655;28;20046;-90
2022/07/27 09:26:28;;;;;;;5.82;1.88;;;17.20;99.90;;;;;;5017686;28;20107;-89
2022/07/27 09:28:58;;;;;;;5.55;1.50;;;17.30;99.90;;;;;;5022297;28;20048;-90
2022/07/27 09:31:24;;;;;;;5.50;1.67;;;17.30;99.90;;;;;;5031783;28;20494;-89
2022/07/27 09:33:53;;;;;;;6.45;1.50;;;17.50;99.90;;;;;;5022983;28;20445;-92
2022/07/27 09:36:21;;;;;;;7.03;1.73;;;17.50;99.90;;;;;;5046467;28;20041;-89
2022/07/27 09:38:59;;;;;;;5.18;1.50;;;17.60;99.90;;;;;;5025370;28;20053;-89
2022/07/27 09:41:25;;;;;;;4.78;1.33;;;17.70;99.90;;;;;;5029118;28;20048;-91
2022/07/27 09:43:54;;;;;;;6.78;1.88;;;17.90;99.90;;;;;;5009543;28;20383;-90
2022/07/27 09:46:30;;;;;;;5.45;1.63;;;18.00;99.90;;;;;;5014114;28;20033;-92
2022/07/27 09:48:56;;;;;;;6.55;1.67;;;18.20;99.90;;;;;;5004913;28;20099;-91
2022/07/27 09:51:24;;;;;;;6.68;1.88;;;18.30;99.90;;;;;;4997772;28;20041;-91
2022/07/27 09:53:52;;;;;;;5.82;1.60;;;18.40;99.90;;;;;;5009758;28;20128;-91
2022/07/27 09:56:28;;;;;;;6.30;1.58;;;18.40;99.90;;;;;;5025312;28;20052;-92
2022/07/27 09:58:58;;;;;;;5.15;1.60;;;18.40;99.90;;;;;;5006535;28;20115;-90
2022/07/27 10:01:33;;;;;;;6.03;1.30;;;18.50;99.90;;;;;;5008070;28;20048;-93
2022/07/27 10:04:02;;;;;;;5.32;1.42;;;18.50;99.90;;;;;;5012914;28;20049;-89
2022/07/27 10:06:29;;;;;;;6.18;1.52;;;18.40;99.90;;;;;;5034728;28;20044;-89
2022/07/27 10:08:56;;;;;;;5.30;1.52;;;18.40;99.90;;;;;;4993869;28;20049;-89
2022/07/27 10:11:23;;;;;;;6.10;1.50;;;18.50;99.90;;;;;;5017675;28;20051;-88
2022/07/27 10:13:49;;;;;;;5.63;1.60;;;18.60;99.90;;;;;;5011426;28;20038;-89
2022/07/27 10:16:19;;;;;;;5.18;1.42;;;18.60;99.90;;;;;;5039410;28;20050;-89
2022/07/27 10:18:57;;;;;;;5.70;1.40;;;18.60;99.90;;;;;;5006452;28;20049;-90
2022/07/27 10:21:23;;;;;;;4.55;1.40;;;18.80;99.90;;;;;;5032552;28;20056;-89
2022/07/27 10:23:58;;;;;;;6.43;1.42;;;18.90;99.90;;;;;;5004985;28;20762;-90
2022/07/27 10:26:23;;;;;;;4.35;1.42;;;19.00;99.90;;;;;;5003239;28;20108;-87
2022/07/27 10:28:54;;;;;;;5.55;1.33;;;19.10;99.90;;;;;;5022328;28;20494;-90
2022/07/27 10:31:24;;;;;;;4.45;1.38;;;19.10;99.90;;;;;;4989814;28;20132;-90
2022/07/27 10:33:55;;;;;;;5.50;1.17;;;19.20;99.90;;;;;;5004403;28;20045;-91
2022/07/27 10:36:27;;;;;;;4.78;1.20;;;19.20;99.90;;;;;;4992800;28;20049;-90
2022/07/27 10:38:55;;;;;;;5.13;1.33;;;19.20;99.90;;;;;;4991898;28;20054;-90
2022/07/27 10:41:28;;;;;;;5.88;1.38;;;19.30;99.90;;;;;;5021267;28;20049;-91
2022/07/27 10:44:13;;;;;;;5.82;1.10;;;19.50;99.90;;;;;;5006392;28;20053;-91
2022/07/27 10:46:49;;;;;;;6.90;1.50;;;19.60;99.90;;;;;;5028533;28;20045;-87
2022/07/27 10:49:22;;;;;;;3.65;1.25;;;19.60;99.90;;;;;;4991420;28;20352;-89
2022/07/27 10:51:51;;;;;;;5.28;1.00;;;19.60;99.90;;;;;;4994282;28;20056;-94
2022/07/27 10:54:37;;;;;;;4.60;1.15;;;19.50;99.90;;;;;;5010420;28;20041;-91
2022/07/27 10:57:05;;;;;;;5.43;1.10;;;19.50;99.90;;;;;;5027770;28;20211;-89
2022/07/27 10:59:37;;;;;;;4.10;1.20;;;19.40;99.90;;;;;;5026722;28;20645;-90
2022/07/27 11:02:04;;;;;;;4.40;1.30;;;19.40;99.90;;;;;;5010684;28;20613;-91
2022/07/27 11:04:31;;;;;;;4.05;1.20;;;19.40;99.90;;;;;;4992487;28;20034;-91
2022/07/27 11:07:01;;;;;;;4.93;1.25;;;19.50;99.90;;;;;;5030365;28;20390;-90
2022/07/27 11:09:37;;;;;;;8.82;1.40;;;19.50;99.90;;;;;;5010562;28;20081;-90
2022/07/27 11:12:09;;;;;;;3.95;1.30;;;19.60;99.90;;;;;;5025797;28;20119;-91
2022/07/27 11:14:45;;;;;;;5.65;1.30;;;19.60;99.90;;;;;;4994577;28;20906;-91
2022/07/27 11:17:11;;;;;;;5.55;1.45;;;19.50;99.90;;;;;;5009915;28;20049;-89
2022/07/27 11:19:36;;;;;;;5.05;1.38;;;19.60;99.90;;;;;;5006320;28;20080;-89
2022/07/27 11:22:02;;;;;;;5.68;1.48;;;19.50;99.90;;;;;;5027964;28;20076;-92
2022/07/27 11:24:28;;;;;;;3.90;1.40;;;19.60;99.90;;;;;;5007775;28;20065;-91
2022/07/27 11:26:54;;;;;;;5.57;1.38;;;19.60;99.20;;;;;;5013021;28;20076;-90
2022/07/27 11:29:22;;;;;;;5.07;1.40;;;19.70;98.70;;;;;;5011067;28;20061;-90
2022/07/27 11:31:53;;;;;;;4.90;1.40;;;19.70;99.00;;;;;;4995047;28;20091;-91
2022/07/27 11:34:30;;;;;;;4.65;1.17;;;19.70;98.90;;;;;;5011685;28;20053;-92
2022/07/27 11:37:00;;;;;;;7.53;1.45;;;19.80;98.00;;;;;;5024738;28;20069;-91
2022/07/27 11:39:27;;;;;;;3.47;1.20;;;19.90;98.70;;;;;;5013102;28;20064;-91
2022/07/27 11:41:58;;;;;;;4.38;1.30;;;19.80;98.90;;;;;;4994893;28;20042;-91
2022/07/27 11:44:24;;;;;;;6.65;1.63;;;19.80;98.70;;;;;;5012749;28;20111;-91
2022/07/27 11:46:52;;;;;;;5.55;1.27;;;19.80;99.00;;;;;;5009911;28;20053;-92
2022/07/27 11:49:27;;;;;;;8.07;1.48;;;19.80;99.30;;;;;;4993586;28;20048;-91
2022/07/27 11:51:55;;;;;;;6.25;1.27;;;19.90;99.20;;;;;;5006196;28;20048;-90
2022/07/27 11:54:25;;;;;;;4.93;1.25;;;19.90;99.40;;;;;;5028673;28;20046;-91
2022/07/27 11:57:00;;;;;;;4.82;1.15;;;19.90;99.40;;;;;;5011430;28;20037;-92
2022/07/27 11:59:31;;;;;;;5.35;1.20;;;19.90;98.70;;;;;;4990422;28;20037;-91
2022/07/27 12:02:08;;;;;;;3.40;1.10;;;19.90;98.80;;;;;;4994438;28;20128;-91
2022/07/27 12:04:37;;;;;;;5.70;1.30;;;19.90;98.70;;;;;;5026487;28;20041;-92
2022/07/27 12:07:09;;;;;;;5.82;1.23;;;19.90;98.20;;;;;;5010230;28;20134;-90
2022/07/27 12:09:43;;;;;;;6.10;1.33;;;19.90;98.00;;;;;;4993706;28;20037;-89
2022/07/27 12:12:17;;;;;;;7.13;1.50;;;19.90;97.90;;;;;;5027927;28;20049;-89
2022/07/27 12:14:55;;;;;;;5.68;1.40;;;19.90;97.60;;;;;;5009931;28;20504;-90
2022/07/27 12:17:38;;;;;;;3.92;1.10;;;20.00;97.80;;;;;;4994583;28;20466;-90
2022/07/27 12:20:15;;;;;;;3.17;1.17;;;20.10;95.90;;;;;;5007008;28;20045;-89
2022/07/27 12:22:46;;;;;;;4.25;1.15;;;20.00;95.00;;;;;;5026633;28;20125;-88
2022/07/27 12:25:18;;;;;;;4.80;0.93;;;20.10;95.60;;;;;;5006705;28;20397;-89
2022/07/27 12:27:57;;;;;;;4.30;1.00;;;20.10;92.80;;;;;;4991723;28;20053;-89
2022/07/27 12:30:34;;;;;;;7.50;1.27;;;20.10;94.70;;;;;;5026184;28;20052;-91
2022/07/27 12:33:06;;;;;;;4.00;1.20;;;20.10;94.40;;;;;;5025534;28;20060;-90
2022/07/27 12:35:33;;;;;;;3.55;1.17;;;20.00;94.40;;;;;;5005247;28;20041;-88
2022/07/27 12:38:01;;;;;;;5.15;1.20;;;20.00;94.70;;;;;;5005402;28;20041;-89
2022/07/27 12:40:29;;;;;;;3.95;1.15;;;20.10;94.50;;;;;;4993152;28;20486;-90
2022/07/27 12:43:01;;;;;;;5.65;1.00;;;20.20;94.70;;;;;;4993353;28;20076;-90
2022/07/27 12:45:35;;;;;;;2.88;0.90;;;20.30;93.90;;;;;;5027944;28;20059;-90
2022/07/27 12:48:12;;;;;;;3.10;1.10;;;20.30;94.00;;;;;;5010004;28;20057;-94
2022/07/27 12:50:43;;;;;;;3.42;0.88;;;20.10;92.70;;;;;;5007573;28;20045;-91
2022/07/27 12:53:09;;;;;;;5.25;0.88;;;19.90;93.00;;;;;;4993212;28;20053;-90
2022/07/27 12:55:36;;;;;;;3.50;1.05;;;19.80;93.50;;;;;;4989773;28;20042;-91